sensor_id;sensor_type;location;lat;lon;timestamp;pressure;altitude;pressure_sealevel;temperature;humidity
44637;BME280;30343;0.000;0.000;2022-07-06T00:02:29;100917.84;;;17.89;58.08
44637;BME280;30343;0.000;0.000;2022-07-06T00:05:13;100913.47;;;17.88;58.06
44637;BME280;30343;0.000;0.000;2022-07-06T00:07:59;100910.88;;;17.88;58.03
44637;BME280;30343;0.000;0.000;2022-07-06T00:10:43;100916.09;;;17.85;58.04
44637;BME280;30343;0.000;0.000;2022-07-06T00:13:27;100909.09;;;17.85;57.98
44637;BME280;30343;0.000;0.000;2022-07-06T00:16:11;100910.84;;;17.85;58.06
44637;BME280;30343;0.000;0.000;2022-07-06T00:18:56;100915.22;;;17.84;58.25
44637;BME280;30343;0.000;0.000;2022-07-06T00:21:42;100908.22;;;17.83;58.25
44637;BME280;30343;0.000;0.000;2022-07-06T00:24:26;100904.75;;;17.83;58.13
44637;BME280;30343;0.000;0.000;2022-07-06T00:27:10;100914.38;;;17.82;58.19
44637;BME280;30343;0.000;0.000;2022-07-06T00:29:54;100910.00;;;17.81;58.13
44637;BME280;30343;0.000;0.000;2022-07-06T00:32:38;100909.09;;;17.80;58.15
44637;BME280;30343;0.000;0.000;2022-07-06T00:35:22;100907.34;;;17.79;58.16
44637;BME280;30343;0.000;0.000;2022-07-06T00:38:09;100903.88;;;17.79;58.21
44637;BME280;30343;0.000;0.000;2022-07-06T00:40:53;100906.50;;;17.79;58.23
44637;BME280;30343;0.000;0.000;2022-07-06T00:43:50;100909.13;;;17.76;58.09
44637;BME280;30343;0.000;0.000;2022-07-06T00:46:34;100908.22;;;17.75;58.32
44637;BME280;30343;0.000;0.000;2022-07-06T00:49:18;100910.84;;;17.75;58.06
44637;BME280;30343;0.000;0.000;2022-07-06T00:52:21;100905.63;;;17.74;58.25
44637;BME280;30343;0.000;0.000;2022-07-06T00:55:05;100902.13;;;17.73;58.13
44637;BME280;30343;0.000;0.000;2022-07-06T00:57:50;100895.13;;;17.72;58.28
44637;BME280;30343;0.000;0.000;2022-07-06T01:00:35;100903.88;;;17.71;58.15
44637;BME280;30343;0.000;0.000;2022-07-06T01:03:19;100899.50;;;17.70;57.92
44637;BME280;30343;0.000;0.000;2022-07-06T01:06:04;100893.38;;;17.68;58.06
44637;BME280;30343;0.000;0.000;2022-07-06T01:08:48;100895.09;;;17.68;58.13
44637;BME280;30343;0.000;0.000;2022-07-06T01:11:32;100904.75;;;17.67;58.11
44637;BME280;30343;0.000;0.000;2022-07-06T01:14:16;100900.38;;;17.66;58.31
44637;BME280;30343;0.000;0.000;2022-07-06T01:17:01;100906.47;;;17.65;58.11
44637;BME280;30343;0.000;0.000;2022-07-06T01:19:46;100905.63;;;17.64;58.49
44637;BME280;30343;0.000;0.000;2022-07-06T01:22:32;100901.22;;;17.62;58.05
44637;BME280;30343;0.000;0.000;2022-07-06T01:25:17;100911.72;;;17.62;58.01
44637;BME280;30343;0.000;0.000;2022-07-06T01:28:03;100908.22;;;17.60;58.15
44637;BME280;30343;0.000;0.000;2022-07-06T01:30:49;100911.75;;;17.59;58.23
44637;BME280;30343;0.000;0.000;2022-07-06T01:33:32;100903.84;;;17.57;58.31
44637;BME280;30343;0.000;0.000;2022-07-06T01:36:17;100907.34;;;17.56;58.19
44637;BME280;30343;0.000;0.000;2022-07-06T01:39:01;100901.25;;;17.56;57.91
44637;BME280;30343;0.000;0.000;2022-07-06T01:41:45;100900.38;;;17.54;58.43
44637;BME280;30343;0.000;0.000;2022-07-06T01:44:29;100902.09;;;17.53;58.13
44637;BME280;30343;0.000;0.000;2022-07-06T01:47:13;100902.97;;;17.52;58.05
44637;BME280;30343;0.000;0.000;2022-07-06T01:50:06;100895.97;;;17.49;58.04
44637;BME280;30343;0.000;0.000;2022-07-06T01:52:51;100898.59;;;17.46;58.28
44637;BME280;30343;0.000;0.000;2022-07-06T01:55:34;100895.13;;;17.46;58.08
44637;BME280;30343;0.000;0.000;2022-07-06T01:58:18;100893.38;;;17.45;58.08
44637;BME280;30343;0.000;0.000;2022-07-06T02:01:10;100896.84;;;17.44;57.98
44637;BME280;30343;0.000;0.000;2022-07-06T02:03:54;100892.50;;;17.43;58.12
44637;BME280;30343;0.000;0.000;2022-07-06T02:06:38;100888.13;;;17.43;58.13
44637;BME280;30343;0.000;0.000;2022-07-06T02:09:27;100893.34;;;17.42;58.21
44637;BME280;30343;0.000;0.000;2022-07-06T02:12:11;100895.97;;;17.42;58.07
44637;BME280;30343;0.000;0.000;2022-07-06T02:14:55;100901.22;;;17.40;58.03
44637;BME280;30343;0.000;0.000;2022-07-06T02:17:39;100900.34;;;17.38;58.06
44637;BME280;30343;0.000;0.000;2022-07-06T02:20:23;100891.59;;;17.38;58.07
44637;BME280;30343;0.000;0.000;2022-07-06T02:23:07;100895.09;;;17.37;58.21
44637;BME280;30343;0.000;0.000;2022-07-06T02:25:52;100889.00;;;17.36;58.18
44637;BME280;30343;0.000;0.000;2022-07-06T02:28:35;100888.97;;;17.33;58.15
44637;BME280;30343;0.000;0.000;2022-07-06T02:31:22;100884.59;;;17.32;58.30
44637;BME280;30343;0.000;0.000;2022-07-06T02:34:06;100880.25;;;17.32;57.68
44637;BME280;30343;0.000;0.000;2022-07-06T02:36:50;100875.88;;;17.31;58.15
44637;BME280;30343;0.000;0.000;2022-07-06T02:39:34;100874.13;;;17.30;58.17
44637;BME280;30343;0.000;0.000;2022-07-06T02:42:18;100875.03;;;17.28;58.18
44637;BME280;30343;0.000;0.000;2022-07-06T02:45:02;100878.50;;;17.28;58.19
44637;BME280;30343;0.000;0.000;2022-07-06T02:47:47;100878.50;;;17.27;58.19
44637;BME280;30343;0.000;0.000;2022-07-06T02:50:30;100875.88;;;17.25;58.14
44637;BME280;30343;0.000;0.000;2022-07-06T02:53:15;100881.97;;;17.23;58.12
44637;BME280;30343;0.000;0.000;2022-07-06T02:56:01;100885.47;;;17.23;58.25
44637;BME280;30343;0.000;0.000;2022-07-06T02:58:44;100887.22;;;17.23;58.35
44637;BME280;30343;0.000;0.000;2022-07-06T03:01:28;100882.84;;;17.22;58.40
44637;BME280;30343;0.000;0.000;2022-07-06T03:04:12;100881.09;;;17.20;58.18
44637;BME280;30343;0.000;0.000;2022-07-06T03:06:56;100881.97;;;17.21;58.20
44637;BME280;30343;0.000;0.000;2022-07-06T03:09:40;100886.34;;;17.19;58.25
44637;BME280;30343;0.000;0.000;2022-07-06T03:12:24;100887.22;;;17.18;58.37
44637;BME280;30343;0.000;0.000;2022-07-06T03:15:09;100894.19;;;17.17;58.33
44637;BME280;30343;0.000;0.000;2022-07-06T03:17:53;100892.44;;;17.16;58.26
44637;BME280;30343;0.000;0.000;2022-07-06T03:20:37;100889.81;;;17.15;58.25
44637;BME280;30343;0.000;0.000;2022-07-06T03:23:21;100887.22;;;17.15;58.28
44637;BME280;30343;0.000;0.000;2022-07-06T03:26:05;100886.34;;;17.16;58.45
44637;BME280;30343;0.000;0.000;2022-07-06T03:28:49;100895.06;;;17.15;58.23
44637;BME280;30343;0.000;0.000;2022-07-06T03:31:33;100902.03;;;17.13;58.26
44637;BME280;30343;0.000;0.000;2022-07-06T03:34:16;100895.94;;;17.12;58.31
44637;BME280;30343;0.000;0.000;2022-07-06T03:37:00;100901.19;;;17.12;58.23
44637;BME280;30343;0.000;0.000;2022-07-06T03:39:44;100901.16;;;17.11;58.25
44637;BME280;30343;0.000;0.000;2022-07-06T03:42:28;100896.81;;;17.11;58.24
44637;BME280;30343;0.000;0.000;2022-07-06T03:45:12;100896.78;;;17.10;58.58
44637;BME280;30343;0.000;0.000;2022-07-06T03:47:59;100892.41;;;17.09;58.33
44637;BME280;30343;0.000;0.000;2022-07-06T03:50:43;100902.91;;;17.09;58.28
44637;BME280;30343;0.000;0.000;2022-07-06T03:53:27;100907.28;;;17.08;58.23
44637;BME280;30343;0.000;0.000;2022-07-06T03:56:10;100902.91;;;17.07;58.45
44637;BME280;30343;0.000;0.000;2022-07-06T03:59:13;100907.25;;;17.07;58.38
44637;BME280;30343;0.000;0.000;2022-07-06T04:01:57;100908.13;;;17.04;58.29
44637;BME280;30343;0.000;0.000;2022-07-06T04:04:41;100905.50;;;17.02;58.52
44637;BME280;30343;0.000;0.000;2022-07-06T04:07:25;100909.88;;;17.03;58.65
44637;BME280;30343;0.000;0.000;2022-07-06T04:10:09;100914.22;;;17.01;58.31
44637;BME280;30343;0.000;0.000;2022-07-06T04:12:54;100910.75;;;17.02;58.45
44637;BME280;30343;0.000;0.000;2022-07-06T04:15:38;100908.09;;;17.01;58.33
44637;BME280;30343;0.000;0.000;2022-07-06T04:18:23;100916.84;;;17.00;58.57
44637;BME280;30343;0.000;0.000;2022-07-06T04:21:07;100915.97;;;16.99;58.36
44637;BME280;30343;0.000;0.000;2022-07-06T04:23:50;100919.47;;;16.98;58.42
44637;BME280;30343;0.000;0.000;2022-07-06T04:26:34;100923.81;;;16.99;58.55
44637;BME280;30343;0.000;0.000;2022-07-06T04:29:18;100925.56;;;16.99;58.72
44637;BME280;30343;0.000;0.000;2022-07-06T04:32:02;100930.78;;;16.97;58.54
44637;BME280;30343;0.000;0.000;2022-07-06T04:34:46;100930.78;;;16.97;58.42
44637;BME280;30343;0.000;0.000;2022-07-06T04:37:31;100920.34;;;16.96;58.47
44637;BME280;30343;0.000;0.000;2022-07-06T04:40:15;100928.13;;;16.93;58.33
44637;BME280;30343;0.000;0.000;2022-07-06T04:42:59;100931.63;;;16.92;58.49
44637;BME280;30343;0.000;0.000;2022-07-06T04:45:43;100930.72;;;16.91;58.62
44637;BME280;30343;0.000;0.000;2022-07-06T04:48:27;100922.88;;;16.91;58.57
44637;BME280;30343;0.000;0.000;2022-07-06T04:51:11;100919.38;;;16.92;58.31
44637;BME280;30343;0.000;0.000;2022-07-06T04:53:56;100917.66;;;16.89;58.55
44637;BME280;30343;0.000;0.000;2022-07-06T04:56:40;100909.78;;;16.88;58.33
44637;BME280;30343;0.000;0.000;2022-07-06T04:59:24;100913.28;;;16.87;58.52
44637;BME280;30343;0.000;0.000;2022-07-06T05:02:08;100910.66;;;16.88;58.60
44637;BME280;30343;0.000;0.000;2022-07-06T05:04:55;100910.66;;;16.88;58.43
44637;BME280;30343;0.000;0.000;2022-07-06T05:07:39;100909.78;;;16.88;58.60
44637;BME280;30343;0.000;0.000;2022-07-06T05:10:23;100910.66;;;16.88;58.75
44637;BME280;30343;0.000;0.000;2022-07-06T05:13:07;100917.66;;;16.89;58.59
44637;BME280;30343;0.000;0.000;2022-07-06T05:15:52;100916.75;;;16.87;58.77
44637;BME280;30343;0.000;0.000;2022-07-06T05:18:36;100922.00;;;16.87;58.78
44637;BME280;30343;0.000;0.000;2022-07-06T05:21:19;100928.13;;;16.88;58.79
44637;BME280;30343;0.000;0.000;2022-07-06T05:24:04;100922.03;;;16.89;58.85
44637;BME280;30343;0.000;0.000;2022-07-06T05:26:48;100928.09;;;16.86;58.79
44637;BME280;30343;0.000;0.000;2022-07-06T05:29:34;100933.34;;;16.85;59.19
44637;BME280;30343;0.000;0.000;2022-07-06T05:32:18;100930.72;;;16.85;58.84
44637;BME280;30343;0.000;0.000;2022-07-06T05:35:02;100932.47;;;16.86;59.00
44637;BME280;30343;0.000;0.000;2022-07-06T05:37:46;100932.47;;;16.86;58.93
44637;BME280;30343;0.000;0.000;2022-07-06T05:40:30;100935.09;;;16.86;59.04
44637;BME280;30343;0.000;0.000;2022-07-06T05:43:14;100935.09;;;16.86;59.33
44637;BME280;30343;0.000;0.000;2022-07-06T05:45:58;100936.84;;;16.87;59.22
44637;BME280;30343;0.000;0.000;2022-07-06T05:48:42;100936.84;;;16.88;59.35
44637;BME280;30343;0.000;0.000;2022-07-06T05:51:45;100937.72;;;16.89;59.34
44637;BME280;30343;0.000;0.000;2022-07-06T05:54:31;100940.34;;;16.89;59.19
44637;BME280;30343;0.000;0.000;2022-07-06T05:57:15;100939.47;;;16.88;59.28
44637;BME280;30343;0.000;0.000;2022-07-06T06:00:06;100945.59;;;16.89;59.28
44637;BME280;30343;0.000;0.000;2022-07-06T06:02:52;100942.97;;;16.89;59.30
44637;BME280;30343;0.000;0.000;2022-07-06T06:05:36;100949.06;;;16.89;59.33
44637;BME280;30343;0.000;0.000;2022-07-06T06:08:20;100950.81;;;16.89;59.27
44637;BME280;30343;0.000;0.000;2022-07-06T06:11:07;100944.69;;;16.88;59.33
44637;BME280;30343;0.000;0.000;2022-07-06T06:13:51;100947.31;;;16.90;59.35
44637;BME280;30343;0.000;0.000;2022-07-06T06:16:35;100944.69;;;16.90;59.25
44637;BME280;30343;0.000;0.000;2022-07-06T06:19:19;100950.81;;;16.89;59.29
44637;BME280;30343;0.000;0.000;2022-07-06T06:22:03;100944.69;;;16.88;59.28
44637;BME280;30343;0.000;0.000;2022-07-06T06:24:47;100951.69;;;16.88;59.42
44637;BME280;30343;0.000;0.000;2022-07-06T06:27:32;100946.44;;;16.89;59.26
44637;BME280;30343;0.000;0.000;2022-07-06T06:30:16;100936.84;;;16.88;59.56
44637;BME280;30343;0.000;0.000;2022-07-06T06:33:16;100940.34;;;16.89;59.58
44637;BME280;30343;0.000;0.000;2022-07-06T06:36:00;100947.31;;;16.90;59.48
44637;BME280;30343;0.000;0.000;2022-07-06T06:38:44;100952.53;;;16.90;59.50
44637;BME280;30343;0.000;0.000;2022-07-06T06:41:28;100949.91;;;16.90;59.53
44637;BME280;30343;0.000;0.000;2022-07-06T06:44:12;100952.53;;;16.90;59.34
44637;BME280;30343;0.000;0.000;2022-07-06T06:46:57;100951.69;;;16.89;59.57
44637;BME280;30343;0.000;0.000;2022-07-06T06:49:41;100949.94;;;16.88;59.43
44637;BME280;30343;0.000;0.000;2022-07-06T06:52:25;100960.38;;;16.90;59.46
44637;BME280;30343;0.000;0.000;2022-07-06T06:55:09;100960.41;;;16.88;59.68
44637;BME280;30343;0.000;0.000;2022-07-06T06:57:53;100947.31;;;16.87;59.52
44637;BME280;30343;0.000;0.000;2022-07-06T07:00:38;100953.41;;;16.86;59.54
44637;BME280;30343;0.000;0.000;2022-07-06T07:03:22;100951.66;;;16.86;59.77
44637;BME280;30343;0.000;0.000;2022-07-06T07:06:06;100949.94;;;16.87;59.63
44637;BME280;30343;0.000;0.000;2022-07-06T07:08:50;100955.16;;;16.87;59.76
44637;BME280;30343;0.000;0.000;2022-07-06T07:11:34;100956.00;;;16.84;59.81
44637;BME280;30343;0.000;0.000;2022-07-06T07:14:18;100959.50;;;16.86;59.76
44637;BME280;30343;0.000;0.000;2022-07-06T07:17:02;100962.13;;;16.86;59.77
44637;BME280;30343;0.000;0.000;2022-07-06T07:19:46;100962.97;;;16.82;59.71
44637;BME280;30343;0.000;0.000;2022-07-06T07:22:30;100957.78;;;16.84;59.80
44637;BME280;30343;0.000;0.000;2022-07-06T07:25:14;100962.09;;;16.83;59.59
44637;BME280;30343;0.000;0.000;2022-07-06T07:27:58;100958.63;;;16.83;59.93
44637;BME280;30343;0.000;0.000;2022-07-06T07:30:42;100957.78;;;16.84;59.88
44637;BME280;30343;0.000;0.000;2022-07-06T07:33:26;100958.66;;;16.86;59.73
44637;BME280;30343;0.000;0.000;2022-07-06T07:36:10;100965.63;;;16.85;60.09
44637;BME280;30343;0.000;0.000;2022-07-06T07:38:53;100962.16;;;16.88;59.72
44637;BME280;30343;0.000;0.000;2022-07-06T07:41:37;100968.22;;;16.85;59.79
44637;BME280;30343;0.000;0.000;2022-07-06T07:44:21;100964.75;;;16.86;59.79
44637;BME280;30343;0.000;0.000;2022-07-06T07:47:05;100961.25;;;16.83;59.72
44637;BME280;30343;0.000;0.000;2022-07-06T07:49:49;100951.66;;;16.86;59.98
44637;BME280;30343;0.000;0.000;2022-07-06T07:52:33;100951.63;;;16.83;59.55
44637;BME280;30343;0.000;0.000;2022-07-06T07:55:18;100945.53;;;16.83;59.75
44637;BME280;30343;0.000;0.000;2022-07-06T07:58:02;100955.13;;;16.81;59.29
44637;BME280;30343;0.000;0.000;2022-07-06T08:00:46;100951.66;;;16.80;59.64
44637;BME280;30343;0.000;0.000;2022-07-06T08:03:30;100950.78;;;16.81;59.54
44637;BME280;30343;0.000;0.000;2022-07-06T08:06:15;100949.88;;;16.82;59.68
44637;BME280;30343;0.000;0.000;2022-07-06T08:08:59;100955.16;;;16.84;59.75
44637;BME280;30343;0.000;0.000;2022-07-06T08:11:44;100954.28;;;16.85;59.42
44637;BME280;30343;0.000;0.000;2022-07-06T08:14:27;100949.91;;;16.85;59.57
44637;BME280;30343;0.000;0.000;2022-07-06T08:17:11;100954.25;;;16.82;59.26
44637;BME280;30343;0.000;0.000;2022-07-06T08:19:56;100954.28;;;16.85;59.36
44637;BME280;30343;0.000;0.000;2022-07-06T08:22:43;100954.25;;;16.82;59.22
44637;BME280;30343;0.000;0.000;2022-07-06T08:25:27;100957.75;;;16.81;58.99
44637;BME280;30343;0.000;0.000;2022-07-06T08:28:11;100951.66;;;16.80;58.91
44637;BME280;30343;0.000;0.000;2022-07-06T08:30:56;100949.88;;;16.81;58.90
44637;BME280;30343;0.000;0.000;2022-07-06T08:33:40;100945.53;;;16.81;59.06
44637;BME280;30343;0.000;0.000;2022-07-06T08:36:24;100949.03;;;16.83;58.98
44637;BME280;30343;0.000;0.000;2022-07-06T08:39:08;100953.38;;;16.84;59.18
44637;BME280;30343;0.000;0.000;2022-07-06T08:41:52;100951.66;;;16.82;58.93
44637;BME280;30343;0.000;0.000;2022-07-06T08:44:39;100955.16;;;16.84;59.11
44637;BME280;30343;0.000;0.000;2022-07-06T08:47:25;100946.44;;;16.85;59.17
44637;BME280;30343;0.000;0.000;2022-07-06T08:50:10;100948.19;;;16.87;59.02
44637;BME280;30343;0.000;0.000;2022-07-06T08:52:54;100950.78;;;16.87;59.22
44637;BME280;30343;0.000;0.000;2022-07-06T08:55:41;100953.44;;;16.89;59.09
44637;BME280;30343;0.000;0.000;2022-07-06T08:58:26;100956.06;;;16.89;59.20
44637;BME280;30343;0.000;0.000;2022-07-06T09:01:11;100950.81;;;16.90;59.14
44637;BME280;30343;0.000;0.000;2022-07-06T09:03:56;100946.44;;;16.91;59.07
44637;BME280;30343;0.000;0.000;2022-07-06T09:06:42;100954.31;;;16.93;58.84
44637;BME280;30343;0.000;0.000;2022-07-06T09:09:29;100945.56;;;16.92;59.11
44637;BME280;30343;0.000;0.000;2022-07-06T09:12:15;100953.44;;;16.92;59.20
44637;BME280;30343;0.000;0.000;2022-07-06T09:14:59;100947.31;;;16.93;59.25
44637;BME280;30343;0.000;0.000;2022-07-06T09:17:44;100943.84;;;16.93;59.10
44637;BME280;30343;0.000;0.000;2022-07-06T09:20:27;100942.94;;;16.92;58.98
44637;BME280;30343;0.000;0.000;2022-07-06T09:23:15;100942.09;;;16.93;58.80
44637;BME280;30343;0.000;0.000;2022-07-06T09:26:06;100951.69;;;16.94;58.97
44637;BME280;30343;0.000;0.000;2022-07-06T09:28:50;100949.13;;;16.96;59.10
44637;BME280;30343;0.000;0.000;2022-07-06T09:31:34;100942.94;;;16.92;58.84
44637;BME280;30343;0.000;0.000;2022-07-06T09:34:18;100948.19;;;16.90;58.78
44637;BME280;30343;0.000;0.000;2022-07-06T09:37:02;100945.56;;;16.92;58.83
44637;BME280;30343;0.000;0.000;2022-07-06T09:39:47;100942.97;;;16.94;58.81
44637;BME280;30343;0.000;0.000;2022-07-06T09:42:33;100942.16;;;16.95;58.75
44637;BME280;30343;0.000;0.000;2022-07-06T09:45:21;100945.66;;;16.97;58.80
44637;BME280;30343;0.000;0.000;2022-07-06T09:48:08;100951.75;;;16.97;58.56
44637;BME280;30343;0.000;0.000;2022-07-06T09:50:59;100948.25;;;16.98;58.75
44637;BME280;30343;0.000;0.000;2022-07-06T09:53:50;100942.16;;;16.99;58.85
44637;BME280;30343;0.000;0.000;2022-07-06T09:56:37;100941.25;;;16.99;58.91
44637;BME280;30343;0.000;0.000;2022-07-06T09:59:25;100940.41;;;17.00;58.82
44637;BME280;30343;0.000;0.000;2022-07-06T10:02:10;100944.78;;;17.02;58.56
44637;BME280;30343;0.000;0.000;2022-07-06T10:04:57;100944.78;;;17.02;58.66
44637;BME280;30343;0.000;0.000;2022-07-06T10:07:41;100936.94;;;17.02;58.46
44637;BME280;30343;0.000;0.000;2022-07-06T10:10:28;100937.78;;;17.03;58.72
44637;BME280;30343;0.000;0.000;2022-07-06T10:13:14;100946.53;;;17.05;58.50
44637;BME280;30343;0.000;0.000;2022-07-06T10:16:03;100941.31;;;17.05;58.56
44637;BME280;30343;0.000;0.000;2022-07-06T10:18:49;100940.44;;;17.06;58.43
44637;BME280;30343;0.000;0.000;2022-07-06T10:21:39;100943.06;;;17.06;58.38
44637;BME280;30343;0.000;0.000;2022-07-06T10:24:24;100940.44;;;17.06;58.79
44637;BME280;30343;0.000;0.000;2022-07-06T10:27:08;100943.06;;;17.04;58.87
44637;BME280;30343;0.000;0.000;2022-07-06T10:29:53;100941.31;;;17.03;58.39
44637;BME280;30343;0.000;0.000;2022-07-06T10:32:39;100950.91;;;17.04;58.34
44637;BME280;30343;0.000;0.000;2022-07-06T10:35:24;100938.66;;;17.07;58.50
44637;BME280;30343;0.000;0.000;2022-07-06T10:38:09;100945.66;;;17.06;58.57
44637;BME280;30343;0.000;0.000;2022-07-06T10:41:01;100945.66;;;17.06;58.50
44637;BME280;30343;0.000;0.000;2022-07-06T10:43:49;100947.41;;;17.05;58.80
44637;BME280;30343;0.000;0.000;2022-07-06T10:46:33;100943.06;;;17.04;58.43
44637;BME280;30343;0.000;0.000;2022-07-06T10:49:17;100945.69;;;17.04;58.60
44637;BME280;30343;0.000;0.000;2022-07-06T10:52:01;100947.41;;;17.04;58.66
44637;BME280;30343;0.000;0.000;2022-07-06T10:54:46;100949.16;;;17.05;58.54
44637;BME280;30343;0.000;0.000;2022-07-06T10:57:52;100950.91;;;17.06;58.46
44637;BME280;30343;0.000;0.000;2022-07-06T11:06:21;100943.94;;;17.08;58.46
44637;BME280;30343;0.000;0.000;2022-07-06T11:09:10;100942.19;;;17.09;58.53
44637;BME280;30343;0.000;0.000;2022-07-06T11:11:56;100946.53;;;17.10;58.43
44637;BME280;30343;0.000;0.000;2022-07-06T11:14:40;100943.94;;;17.11;58.70
44637;BME280;30343;0.000;0.000;2022-07-06T11:17:24;100943.94;;;17.11;58.53
44637;BME280;30343;0.000;0.000;2022-07-06T11:20:10;100943.06;;;17.11;58.55
44637;BME280;30343;0.000;0.000;2022-07-06T11:22:55;100946.56;;;17.11;58.52
44637;BME280;30343;0.000;0.000;2022-07-06T11:25:39;100943.06;;;17.11;58.31
44637;BME280;30343;0.000;0.000;2022-07-06T11:28:25;100937.81;;;17.11;58.34
44637;BME280;30343;0.000;0.000;2022-07-06T11:31:10;100937.81;;;17.11;58.48
44637;BME280;30343;0.000;0.000;2022-07-06T11:34:58;100936.94;;;17.12;58.38
44637;BME280;30343;0.000;0.000;2022-07-06T11:37:42;100939.56;;;17.13;58.32
44637;BME280;30343;0.000;0.000;2022-07-06T11:40:26;100934.34;;;17.12;58.50
44637;BME280;30343;0.000;0.000;2022-07-06T11:43:10;100930.00;;;17.12;58.37
44637;BME280;30343;0.000;0.000;2022-07-06T11:45:54;100932.59;;;17.12;57.96
44637;BME280;30343;0.000;0.000;2022-07-06T11:48:45;100936.94;;;17.12;58.24
44637;BME280;30343;0.000;0.000;2022-07-06T11:51:32;100936.94;;;17.12;58.46
44637;BME280;30343;0.000;0.000;2022-07-06T11:54:18;100932.59;;;17.14;58.28
44637;BME280;30343;0.000;0.000;2022-07-06T11:57:03;100929.13;;;17.15;58.31
44637;BME280;30343;0.000;0.000;2022-07-06T11:59:49;100927.38;;;17.17;58.27
44637;BME280;30343;0.000;0.000;2022-07-06T12:02:35;100925.63;;;17.19;58.39
44637;BME280;30343;0.000;0.000;2022-07-06T12:05:29;100923.88;;;17.18;58.30
44637;BME280;30343;0.000;0.000;2022-07-06T12:08:14;100921.28;;;17.18;58.29
44637;BME280;30343;0.000;0.000;2022-07-06T12:10:58;100923.88;;;17.21;58.32
44637;BME280;30343;0.000;0.000;2022-07-06T12:13:42;100920.41;;;17.19;58.32
44637;BME280;30343;0.000;0.000;2022-07-06T12:16:33;100924.78;;;17.20;58.10
44637;BME280;30343;0.000;0.000;2022-07-06T12:19:21;100922.16;;;17.20;58.13
44637;BME280;30343;0.000;0.000;2022-07-06T12:22:06;100921.25;;;17.21;58.06
44637;BME280;30343;0.000;0.000;2022-07-06T12:24:50;100915.16;;;17.20;58.38
44637;BME280;30343;0.000;0.000;2022-07-06T12:27:37;100916.00;;;17.21;58.40
44637;BME280;30343;0.000;0.000;2022-07-06T12:30:20;100904.66;;;17.22;58.56
44637;BME280;30343;0.000;0.000;2022-07-06T12:33:15;100901.19;;;17.22;58.16
44637;BME280;30343;0.000;0.000;2022-07-06T12:36:15;100897.69;;;17.23;58.24
44637;BME280;30343;0.000;0.000;2022-07-06T12:38:59;100893.34;;;17.22;58.20
44637;BME280;30343;0.000;0.000;2022-07-06T12:44:45;100894.22;;;17.24;58.29
44637;BME280;30343;0.000;0.000;2022-07-06T12:47:30;100878.50;;;17.24;58.21
44637;BME280;30343;0.000;0.000;2022-07-06T12:50:14;100878.50;;;17.24;58.15
44637;BME280;30343;0.000;0.000;2022-07-06T12:52:58;100874.13;;;17.24;58.14
44637;BME280;30343;0.000;0.000;2022-07-06T12:55:42;100879.38;;;17.26;58.40
44637;BME280;30343;0.000;0.000;2022-07-06T12:58:26;100874.13;;;17.26;58.29
44637;BME280;30343;0.000;0.000;2022-07-06T13:01:14;100882.88;;;17.28;58.22
44637;BME280;30343;0.000;0.000;2022-07-06T13:03:58;100876.75;;;17.29;58.18
44637;BME280;30343;0.000;0.000;2022-07-06T13:06:42;100872.38;;;17.29;58.37
44637;BME280;30343;0.000;0.000;2022-07-06T13:09:27;100877.63;;;17.29;58.51
44637;BME280;30343;0.000;0.000;2022-07-06T13:12:11;100876.75;;;17.30;58.19
44637;BME280;30343;0.000;0.000;2022-07-06T13:14:55;100876.75;;;17.30;58.17
44637;BME280;30343;0.000;0.000;2022-07-06T13:17:39;100872.38;;;17.29;58.47
44637;BME280;30343;0.000;0.000;2022-07-06T13:20:23;100864.53;;;17.31;58.14
44637;BME280;30343;0.000;0.000;2022-07-06T13:23:07;100875.03;;;17.32;58.46
44637;BME280;30343;0.000;0.000;2022-07-06T13:25:50;100871.50;;;17.32;58.26
44637;BME280;30343;0.000;0.000;2022-07-06T13:28:34;100868.03;;;17.33;58.45
44637;BME280;30343;0.000;0.000;2022-07-06T13:31:18;100868.91;;;17.35;58.36
44637;BME280;30343;0.000;0.000;2022-07-06T13:34:02;100865.41;;;17.34;58.48
44637;BME280;30343;0.000;0.000;2022-07-06T13:36:46;100854.91;;;17.38;58.37
44637;BME280;30343;0.000;0.000;2022-07-06T13:39:31;100861.91;;;17.39;58.33
44637;BME280;30343;0.000;0.000;2022-07-06T13:42:15;100854.91;;;17.38;58.34
44637;BME280;30343;0.000;0.000;2022-07-06T13:44:59;100857.56;;;17.39;58.37
44637;BME280;30343;0.000;0.000;2022-07-06T13:47:43;100856.69;;;17.40;58.12
44637;BME280;30343;0.000;0.000;2022-07-06T13:50:27;100853.19;;;17.41;58.02
44637;BME280;30343;0.000;0.000;2022-07-06T13:53:15;100853.19;;;17.41;58.43
44637;BME280;30343;0.000;0.000;2022-07-06T13:55:59;100855.81;;;17.41;58.13
44637;BME280;30343;0.000;0.000;2022-07-06T13:58:44;100850.56;;;17.41;58.39
44637;BME280;30343;0.000;0.000;2022-07-06T14:01:28;100846.22;;;17.43;58.44
44637;BME280;30343;0.000;0.000;2022-07-06T14:05:15;100851.44;;;17.45;58.30
44637;BME280;30343;0.000;0.000;2022-07-06T14:07:59;100846.19;;;17.45;58.63
44637;BME280;30343;0.000;0.000;2022-07-06T14:10:44;100841.84;;;17.44;58.36
44637;BME280;30343;0.000;0.000;2022-07-06T14:13:27;100842.72;;;17.46;58.12
44637;BME280;30343;0.000;0.000;2022-07-06T14:16:12;100830.47;;;17.46;58.16
44637;BME280;30343;0.000;0.000;2022-07-06T14:18:56;100840.97;;;17.48;58.33
44637;BME280;30343;0.000;0.000;2022-07-06T14:21:40;100843.56;;;17.49;58.28
44637;BME280;30343;0.000;0.000;2022-07-06T14:24:24;100838.34;;;17.49;58.31
44637;BME280;30343;0.000;0.000;2022-07-06T14:27:08;100831.34;;;17.48;58.44
44637;BME280;30343;0.000;0.000;2022-07-06T14:29:52;100831.34;;;17.48;58.63
44637;BME280;30343;0.000;0.000;2022-07-06T14:32:39;100824.38;;;17.49;58.35
44637;BME280;30343;0.000;0.000;2022-07-06T14:35:23;100824.38;;;17.50;58.51
44637;BME280;30343;0.000;0.000;2022-07-06T14:38:09;100821.72;;;17.52;58.41
44637;BME280;30343;0.000;0.000;2022-07-06T14:40:53;100824.34;;;17.52;58.55
44637;BME280;30343;0.000;0.000;2022-07-06T14:43:37;100816.50;;;17.52;58.29
44637;BME280;30343;0.000;0.000;2022-07-06T14:46:22;100812.13;;;17.54;58.13